LAN27 BGSF-ENBO
Flight info
| Callsign | LAN27 |
|---|---|
| Flight time | 3h 11m |
| Altitude | 37000 |
| Route | WUTAN1B WUTAN DCT 69N040W 70N030W 70N020W/M083F390 70N010W 69N000E/N0466F390 DCT PISEL DCT ODAGO |
| Aircraft | B77W/H-SDE1E2E3FGHIJ2J3J4J5M1RWXY/LB1D1 |
Departure
| Time | 2026-04-22 21:10 |
|---|---|
| Airport | Kangerlussuaq International Airport (BGSF) |
Arrival
| Time | 2026-04-23 00:22 |
|---|---|
| Airport | Bodø Airport (ENBO) |
| Time | Latitude | Longitude | Altitude | Speed | Heading |
|---|---|---|---|---|---|
| 2026-04-22 20:35 | 67.01163 | -50.69735 | 227 ft | 0 kts | 28° |
| 2026-04-22 21:04 | 67.01164 | -50.69733 | 227 ft | 0 kts | 28° |
| 2026-04-22 21:04 | 67.01173 | -50.69718 | 227 ft | 2 kts | 33° |
| 2026-04-22 21:05 | 67.01180 | -50.69707 | 228 ft | 0 kts | 32° |
| 2026-04-22 21:05 | 67.01182 | -50.69703 | 228 ft | 1 kts | 33° |
| 2026-04-22 21:05 | 67.01205 | -50.69660 | 230 ft | 7 kts | 37° |
| 2026-04-22 21:05 | 67.01266 | -50.69530 | 232 ft | 15 kts | 41° |
| 2026-04-22 21:06 | 67.01357 | -50.69329 | 234 ft | 18 kts | 38° |
| 2026-04-22 21:06 | 67.01452 | -50.69150 | 235 ft | 17 kts | 34° |
| 2026-04-22 21:06 | 67.01549 | -50.68978 | 232 ft | 16 kts | 34° |
| 2026-04-22 21:06 | 67.01644 | -50.68819 | 228 ft | 11 kts | 33° |
| 2026-04-22 21:07 | 67.01706 | -50.68735 | 225 ft | 5 kts | 339° |
| 2026-04-22 21:07 | 67.01717 | -50.68824 | 227 ft | 7 kts | 258° |
| 2026-04-22 21:07 | 67.01704 | -50.68906 | 230 ft | 0 kts | 236° |
| 2026-04-22 21:08 | 67.01703 | -50.68907 | 230 ft | 0 kts | 236° |
| 2026-04-22 21:08 | 67.01703 | -50.68908 | 230 ft | 0 kts | 236° |
| 2026-04-22 21:09 | 67.01685 | -50.68980 | 233 ft | 24 kts | 238° |
| 2026-04-22 21:09 | 67.01486 | -50.69922 | 239 ft | 97 kts | 241° |
| 2026-04-22 21:09 | 67.01052 | -50.71988 | 190 ft | 164 kts | 241° |
| 2026-04-22 21:10 | 67.00452 | -50.74743 | 614 ft | 185 kts | 241° |
| 2026-04-22 21:10 | 66.99830 | -50.77705 | 1311 ft | 196 kts | 243° |
| 2026-04-22 21:10 | 66.99250 | -50.80957 | 1771 ft | 213 kts | 244° |
| 2026-04-22 21:10 | 66.98586 | -50.84507 | 2191 ft | 230 kts | 232° |
| 2026-04-22 21:11 | 66.97445 | -50.87529 | 2543 ft | 248 kts | 223° |
| 2026-04-22 21:11 | 66.96345 | -50.90873 | 3427 ft | 248 kts | 227° |
| 2026-04-22 21:11 | 66.95049 | -50.93592 | 4223 ft | 244 kts | 205° |
| 2026-04-22 21:11 | 66.93460 | -50.94613 | 5184 ft | 237 kts | 183° |
| 2026-04-22 21:12 | 66.92382 | -50.94329 | 5761 ft | 237 kts | 169° |
| 2026-04-22 21:12 | 66.90507 | -50.91589 | 6854 ft | 248 kts | 142° |
| 2026-04-22 21:12 | 66.89561 | -50.87779 | 7481 ft | 269 kts | 117° |
| 2026-04-22 21:12 | 66.89302 | -50.82912 | 8172 ft | 283 kts | 99° |
| 2026-04-22 21:13 | 66.89301 | -50.77961 | 8987 ft | 283 kts | 98° |
| 2026-04-22 21:13 | 66.89311 | -50.72928 | 9596 ft | 289 kts | 99° |
| 2026-04-22 21:13 | 66.89325 | -50.67872 | 10326 ft | 288 kts | 99° |
| 2026-04-22 21:13 | 66.89332 | -50.62696 | 10699 ft | 302 kts | 98° |
| 2026-04-22 21:14 | 66.89336 | -50.57193 | 11024 ft | 318 kts | 98° |
| 2026-04-22 21:14 | 66.89339 | -50.51486 | 11312 ft | 336 kts | 97° |
| 2026-04-22 21:14 | 66.89342 | -50.45403 | 11595 ft | 353 kts | 97° |
| 2026-04-22 21:14 | 66.89346 | -50.38998 | 11943 ft | 369 kts | 97° |
| 2026-04-22 21:15 | 66.89352 | -50.32433 | 12347 ft | 382 kts | 97° |
| 2026-04-22 21:15 | 66.89363 | -50.25614 | 13112 ft | 386 kts | 97° |
| 2026-04-22 21:15 | 66.89372 | -50.18841 | 13955 ft | 388 kts | 97° |
| 2026-04-22 21:15 | 66.89380 | -50.11962 | 14729 ft | 394 kts | 97° |
| 2026-04-22 21:16 | 66.89386 | -50.05006 | 15449 ft | 401 kts | 97° |
| 2026-04-22 21:16 | 66.89583 | -49.97893 | 16308 ft | 413 kts | 89° |
| 2026-04-22 21:16 | 66.90279 | -49.90690 | 17000 ft | 430 kts | 78° |
| 2026-04-22 21:16 | 66.91543 | -49.83624 | 17722 ft | 447 kts | 67° |
| 2026-04-22 21:17 | 66.93218 | -49.76897 | 18316 ft | 460 kts | 64° |
| 2026-04-22 21:17 | 66.94981 | -49.70110 | 18460 ft | 460 kts | 63° |
| 2026-04-22 21:17 | 66.96733 | -49.63366 | 18506 ft | 469 kts | 63° |
| 2026-04-22 21:17 | 66.98533 | -49.56421 | 19311 ft | 472 kts | 63° |
| 2026-04-22 21:18 | 67.00342 | -49.49432 | 20364 ft | 470 kts | 63° |
| 2026-04-22 21:18 | 67.02133 | -49.42477 | 21086 ft | 475 kts | 63° |
| 2026-04-22 21:18 | 67.03936 | -49.35448 | 21651 ft | 483 kts | 63° |
| 2026-04-22 21:18 | 67.05791 | -49.28201 | 22255 ft | 490 kts | 64° |
| 2026-04-22 21:19 | 67.07649 | -49.20918 | 22918 ft | 494 kts | 64° |
| 2026-04-22 21:19 | 67.09531 | -49.13524 | 23587 ft | 498 kts | 64° |
| 2026-04-22 21:19 | 67.11418 | -49.06076 | 24110 ft | 505 kts | 63° |
| 2026-04-22 21:19 | 67.13327 | -48.98519 | 24574 ft | 512 kts | 64° |
| 2026-04-22 21:20 | 67.15273 | -48.90791 | 25115 ft | 517 kts | 63° |
| 2026-04-22 21:20 | 67.17234 | -48.82982 | 25652 ft | 522 kts | 63° |
| 2026-04-22 21:20 | 67.19200 | -48.75122 | 26224 ft | 527 kts | 63° |
| 2026-04-22 21:20 | 67.21183 | -48.67167 | 26844 ft | 530 kts | 62° |
| 2026-04-22 21:21 | 67.23153 | -48.59237 | 27362 ft | 536 kts | 62° |
| 2026-04-22 21:21 | 67.25174 | -48.51070 | 27852 ft | 542 kts | 62° |
| 2026-04-22 21:21 | 67.27203 | -48.42839 | 28377 ft | 547 kts | 63° |
| 2026-04-22 21:21 | 67.29224 | -48.34619 | 28893 ft | 552 kts | 63° |
| 2026-04-22 21:22 | 67.31308 | -48.26104 | 29453 ft | 557 kts | 63° |
| 2026-04-22 21:22 | 67.33380 | -48.17616 | 30066 ft | 559 kts | 63° |
| 2026-04-22 21:22 | 67.35434 | -48.09170 | 30732 ft | 560 kts | 62° |
| 2026-04-22 21:22 | 67.37495 | -48.00665 | 31455 ft | 559 kts | 62° |
| 2026-04-22 21:23 | 67.39571 | -47.92065 | 32177 ft | 557 kts | 62° |
| 2026-04-22 21:23 | 67.41618 | -47.83560 | 32905 ft | 555 kts | 62° |
| 2026-04-22 21:23 | 67.43668 | -47.75006 | 33643 ft | 551 kts | 62° |
| 2026-04-22 21:23 | 67.45676 | -47.66605 | 34269 ft | 550 kts | 62° |
| 2026-04-22 21:24 | 67.47684 | -47.58163 | 34794 ft | 549 kts | 62° |
| 2026-04-22 21:24 | 67.49734 | -47.49519 | 35247 ft | 549 kts | 62° |
| 2026-04-22 21:24 | 67.51722 | -47.41108 | 35830 ft | 544 kts | 62° |
| 2026-04-22 21:24 | 67.53699 | -47.32715 | 36405 ft | 538 kts | 63° |
| 2026-04-22 21:25 | 67.55650 | -47.24400 | 36994 ft | 535 kts | 63° |
| 2026-04-22 21:25 | 67.57575 | -47.16151 | 37094 ft | 538 kts | 64° |
| 2026-04-22 21:25 | 67.61440 | -46.99518 | 37096 ft | 534 kts | 64° |
| 2026-04-22 21:26 | 67.65287 | -46.82829 | 37099 ft | 536 kts | 63° |
| 2026-04-22 21:26 | 67.69107 | -46.66131 | 37100 ft | 535 kts | 64° |
| 2026-04-22 21:27 | 67.72911 | -46.49377 | 37099 ft | 535 kts | 64° |
| 2026-04-22 21:27 | 67.76704 | -46.32546 | 37099 ft | 534 kts | 64° |
| 2026-04-22 21:28 | 67.80469 | -46.15705 | 37102 ft | 536 kts | 64° |
| 2026-04-22 21:28 | 67.84209 | -45.98851 | 37107 ft | 535 kts | 64° |
| 2026-04-22 21:29 | 67.87942 | -45.81899 | 37102 ft | 532 kts | 64° |
| 2026-04-22 21:29 | 67.91634 | -45.64999 | 37121 ft | 533 kts | 64° |
| 2026-04-22 21:30 | 67.95337 | -45.47924 | 37137 ft | 533 kts | 63° |
| 2026-04-22 21:30 | 67.99040 | -45.30703 | 37126 ft | 534 kts | 65° |
| 2026-04-22 21:31 | 68.02700 | -45.13556 | 37148 ft | 533 kts | 64° |
| 2026-04-22 21:31 | 68.06338 | -44.96371 | 37139 ft | 534 kts | 64° |
| 2026-04-22 21:32 | 68.09959 | -44.79142 | 37138 ft | 531 kts | 64° |
| 2026-04-22 21:32 | 68.13569 | -44.61820 | 37131 ft | 531 kts | 64° |
| 2026-04-22 21:33 | 68.17133 | -44.44584 | 37152 ft | 531 kts | 64° |
| 2026-04-22 21:33 | 68.20686 | -44.27267 | 37153 ft | 529 kts | 65° |
| 2026-04-22 21:34 | 68.24170 | -44.10150 | 37168 ft | 525 kts | 65° |
| 2026-04-22 21:34 | 68.27666 | -43.92832 | 37174 ft | 526 kts | 65° |
| 2026-04-22 21:35 | 68.31130 | -43.75538 | 37186 ft | 523 kts | 65° |
| 2026-04-22 21:35 | 68.34579 | -43.58183 | 37196 ft | 521 kts | 65° |
| 2026-04-22 21:36 | 68.37993 | -43.40859 | 37207 ft | 522 kts | 65° |
| 2026-04-22 21:36 | 68.41378 | -43.23550 | 37207 ft | 520 kts | 66° |
| 2026-04-22 21:37 | 68.44737 | -43.06233 | 37211 ft | 520 kts | 65° |
| 2026-04-22 21:37 | 68.48057 | -42.88985 | 37228 ft | 516 kts | 65° |
| 2026-04-22 21:38 | 68.51376 | -42.71594 | 37246 ft | 517 kts | 66° |
| 2026-04-22 21:38 | 68.54658 | -42.54266 | 37256 ft | 518 kts | 66° |
| 2026-04-22 21:39 | 68.57914 | -42.36930 | 37274 ft | 516 kts | 66° |
| 2026-04-22 21:39 | 68.61159 | -42.19514 | 37265 ft | 516 kts | 67° |
| 2026-04-22 21:40 | 68.64378 | -42.02107 | 37268 ft | 513 kts | 67° |
| 2026-04-22 21:40 | 68.67585 | -41.84616 | 37265 ft | 513 kts | 66° |
| 2026-04-22 21:41 | 68.70763 | -41.67146 | 37262 ft | 515 kts | 66° |
| 2026-04-22 21:41 | 68.73926 | -41.49620 | 37254 ft | 514 kts | 66° |
| 2026-04-22 21:42 | 68.77097 | -41.31906 | 37252 ft | 517 kts | 67° |
| 2026-04-22 21:42 | 68.79716 | -41.17176 | 37251 ft | 514 kts | 67° |
| 2026-04-22 21:43 | 68.83334 | -40.96656 | 37249 ft | 514 kts | 67° |
| 2026-04-22 21:43 | 68.86440 | -40.78902 | 37248 ft | 514 kts | 67° |
| 2026-04-22 21:44 | 68.89529 | -40.61105 | 37238 ft | 515 kts | 67° |
| 2026-04-22 21:44 | 68.92593 | -40.43327 | 37235 ft | 514 kts | 66° |
| 2026-04-22 21:45 | 68.95637 | -40.25553 | 37229 ft | 512 kts | 68° |
| 2026-04-22 21:45 | 68.98689 | -40.07644 | 37215 ft | 513 kts | 68° |
| 2026-04-22 21:46 | 69.01406 | -39.89495 | 37207 ft | 511 kts | 73° |
| 2026-04-22 21:46 | 69.03851 | -39.71051 | 37193 ft | 508 kts | 72° |
| 2026-04-22 21:47 | 69.06280 | -39.52544 | 37185 ft | 509 kts | 73° |
| 2026-04-22 21:47 | 69.08282 | -39.37180 | 37180 ft | 508 kts | 72° |
| 2026-04-22 21:48 | 69.10683 | -39.18580 | 37169 ft | 507 kts | 73° |
| 2026-04-22 21:48 | 69.13449 | -38.96915 | 37162 ft | 509 kts | 73° |
| 2026-04-22 21:49 | 69.15800 | -38.78302 | 37156 ft | 508 kts | 73° |
| 2026-04-22 21:49 | 69.18117 | -38.59757 | 37154 ft | 505 kts | 73° |
| 2026-04-22 21:50 | 69.20415 | -38.41162 | 37156 ft | 507 kts | 73° |
| 2026-04-22 21:50 | 69.22728 | -38.22242 | 37146 ft | 505 kts | 74° |
| 2026-04-22 21:51 | 69.24985 | -38.03568 | 37143 ft | 505 kts | 74° |
| 2026-04-22 21:52 | 69.28320 | -37.75609 | 37160 ft | 504 kts | 74° |
| 2026-04-22 21:52 | 69.30147 | -37.60094 | 37165 ft | 503 kts | 74° |
| 2026-04-22 21:53 | 69.32340 | -37.41273 | 37169 ft | 504 kts | 74° |
| 2026-04-22 21:53 | 69.34494 | -37.22572 | 37169 ft | 501 kts | 75° |
| 2026-04-22 21:54 | 69.36634 | -37.03780 | 37176 ft | 501 kts | 75° |
| 2026-04-22 21:54 | 69.39095 | -36.81897 | 37198 ft | 501 kts | 75° |
| 2026-04-22 21:55 | 69.40822 | -36.66367 | 37220 ft | 500 kts | 75° |
| 2026-04-22 21:55 | 69.43247 | -36.44294 | 37251 ft | 500 kts | 75° |
| 2026-04-22 21:56 | 69.45289 | -36.25479 | 37261 ft | 500 kts | 76° |
| 2026-04-22 21:56 | 69.47303 | -36.06694 | 37275 ft | 500 kts | 76° |
| 2026-04-22 21:57 | 69.49301 | -35.87830 | 37287 ft | 498 kts | 75° |
| 2026-04-22 21:57 | 69.50959 | -35.71999 | 37295 ft | 501 kts | 75° |
| 2026-04-22 21:58 | 69.53241 | -35.49954 | 37313 ft | 498 kts | 75° |
| 2026-04-22 21:58 | 69.54879 | -35.33918 | 37316 ft | 500 kts | 76° |
| 2026-04-22 21:59 | 69.57120 | -35.11720 | 37324 ft | 499 kts | 76° |
| 2026-04-22 21:59 | 69.58700 | -34.95866 | 37330 ft | 498 kts | 76° |
| 2026-04-22 22:00 | 69.60558 | -34.77004 | 37335 ft | 497 kts | 76° |
| 2026-04-22 22:00 | 69.62723 | -34.54720 | 37347 ft | 496 kts | 76° |
| 2026-04-22 22:01 | 69.64235 | -34.38954 | 37353 ft | 495 kts | 76° |
| 2026-04-22 22:01 | 69.66341 | -34.16713 | 37355 ft | 494 kts | 77° |
| 2026-04-22 22:02 | 69.68121 | -33.97627 | 37352 ft | 494 kts | 77° |
| 2026-04-22 22:02 | 69.69585 | -33.81755 | 37351 ft | 494 kts | 76° |
| 2026-04-22 22:03 | 69.71313 | -33.62780 | 37350 ft | 493 kts | 76° |
| 2026-04-22 22:03 | 69.73298 | -33.40647 | 37357 ft | 491 kts | 76° |
| 2026-04-22 22:04 | 69.74710 | -33.24695 | 37355 ft | 492 kts | 77° |
| 2026-04-22 22:04 | 69.76660 | -33.02352 | 37357 ft | 491 kts | 77° |
| 2026-04-22 22:05 | 69.78034 | -32.86377 | 37364 ft | 489 kts | 77° |
| 2026-04-22 22:05 | 69.79917 | -32.64184 | 37364 ft | 490 kts | 77° |
| 2026-04-22 22:06 | 69.81256 | -32.48183 | 37369 ft | 488 kts | 77° |
| 2026-04-22 22:06 | 69.82821 | -32.29221 | 37363 ft | 488 kts | 78° |
| 2026-04-22 22:07 | 69.84635 | -32.06884 | 37359 ft | 485 kts | 78° |
| 2026-04-22 22:07 | 69.85390 | -31.97487 | 37633 ft | 487 kts | 78° |
| 2026-04-22 22:07 | 69.85900 | -31.91083 | 37291 ft | 487 kts | 78° |
| 2026-04-22 22:08 | 69.87407 | -31.71991 | 37339 ft | 487 kts | 78° |
| 2026-04-22 22:08 | 69.88902 | -31.52759 | 37325 ft | 487 kts | 77° |
| 2026-04-22 22:09 | 69.90370 | -31.33592 | 37315 ft | 485 kts | 78° |
| 2026-04-22 22:09 | 69.91807 | -31.14530 | 37297 ft | 484 kts | 78° |
| 2026-04-22 22:10 | 69.93223 | -30.95448 | 37253 ft | 484 kts | 78° |
| 2026-04-22 22:10 | 69.94638 | -30.76077 | 37229 ft | 485 kts | 78° |
| 2026-04-22 22:11 | 69.96015 | -30.56905 | 37205 ft | 486 kts | 78° |
| 2026-04-22 22:11 | 69.97373 | -30.37691 | 37185 ft | 482 kts | 78° |
| 2026-04-22 22:12 | 69.98701 | -30.18584 | 37192 ft | 483 kts | 79° |
| 2026-04-22 22:12 | 69.99946 | -29.96066 | 37203 ft | 483 kts | 85° |
| 2026-04-22 22:13 | 70.00451 | -29.79825 | 37198 ft | 482 kts | 85° |
| 2026-04-22 22:13 | 70.00999 | -29.60481 | 37193 ft | 481 kts | 85° |
| 2026-04-22 22:14 | 70.01508 | -29.41107 | 37199 ft | 481 kts | 85° |
| 2026-04-22 22:14 | 70.01994 | -29.21504 | 37207 ft | 481 kts | 86° |
| 2026-04-22 22:15 | 70.02519 | -28.98928 | 37208 ft | 479 kts | 86° |
| 2026-04-22 22:15 | 70.02879 | -28.82644 | 37196 ft | 479 kts | 86° |
| 2026-04-22 22:16 | 70.03284 | -28.63324 | 37180 ft | 478 kts | 86° |
| 2026-04-22 22:16 | 70.03670 | -28.43894 | 37172 ft | 478 kts | 86° |
| 2026-04-22 22:17 | 70.04035 | -28.24430 | 37165 ft | 479 kts | 87° |
| 2026-04-22 22:17 | 70.04432 | -28.01863 | 37151 ft | 476 kts | 87° |
| 2026-04-22 22:18 | 70.04699 | -27.85661 | 37142 ft | 477 kts | 87° |
| 2026-04-22 22:18 | 70.05001 | -27.66131 | 37143 ft | 476 kts | 87° |
| 2026-04-22 22:19 | 70.05279 | -27.46775 | 37153 ft | 477 kts | 87° |
| 2026-04-22 22:19 | 70.05537 | -27.27327 | 37144 ft | 477 kts | 88° |
| 2026-04-22 22:20 | 70.05809 | -27.04851 | 37103 ft | 476 kts | 88° |
| 2026-04-22 22:20 | 70.05987 | -26.88707 | 37120 ft | 475 kts | 88° |
| 2026-04-22 22:21 | 70.06180 | -26.69490 | 37124 ft | 476 kts | 88° |
| 2026-04-22 22:21 | 70.06353 | -26.50085 | 37135 ft | 475 kts | 88° |
| 2026-04-22 22:22 | 70.06505 | -26.30766 | 37136 ft | 477 kts | 89° |
| 2026-04-22 22:22 | 70.06636 | -26.11404 | 37150 ft | 476 kts | 89° |
| 2026-04-22 22:23 | 70.06747 | -25.91897 | 37147 ft | 475 kts | 88° |
| 2026-04-22 22:23 | 70.06835 | -25.72733 | 37148 ft | 476 kts | 89° |
| 2026-04-22 22:24 | 70.06904 | -25.53353 | 37146 ft | 475 kts | 89° |
| 2026-04-22 22:24 | 70.06951 | -25.34115 | 37139 ft | 474 kts | 89° |
| 2026-04-22 22:25 | 70.06977 | -25.14806 | 37135 ft | 474 kts | 89° |
| 2026-04-22 22:25 | 70.06982 | -24.92377 | 37134 ft | 474 kts | 89° |
| 2026-04-22 22:26 | 70.06968 | -24.76407 | 37122 ft | 473 kts | 89° |
| 2026-04-22 22:26 | 70.06932 | -24.57162 | 37109 ft | 473 kts | 89° |
| 2026-04-22 22:27 | 70.06876 | -24.38003 | 37103 ft | 472 kts | 89° |
| 2026-04-22 22:27 | 70.06799 | -24.18723 | 37101 ft | 472 kts | 90° |
| 2026-04-22 22:28 | 70.06701 | -23.99556 | 37101 ft | 473 kts | 90° |
| 2026-04-22 22:28 | 70.06582 | -23.80226 | 37100 ft | 472 kts | 90° |
| 2026-04-22 22:29 | 70.06443 | -23.60996 | 37097 ft | 475 kts | 90° |
| 2026-04-22 22:29 | 70.06282 | -23.41651 | 37096 ft | 475 kts | 90° |
| 2026-04-22 22:30 | 70.06102 | -23.22469 | 37085 ft | 475 kts | 91° |
| 2026-04-22 22:30 | 70.05900 | -23.03207 | 37085 ft | 476 kts | 91° |
| 2026-04-22 22:31 | 70.05677 | -22.83933 | 37073 ft | 475 kts | 91° |
| 2026-04-22 22:31 | 70.05434 | -22.64691 | 37078 ft | 478 kts | 92° |
| 2026-04-22 22:32 | 70.05167 | -22.45229 | 37098 ft | 477 kts | 92° |
| 2026-04-22 22:32 | 70.04878 | -22.25754 | 37104 ft | 480 kts | 93° |
| 2026-04-22 22:33 | 70.04567 | -22.06229 | 37113 ft | 481 kts | 93° |
| 2026-04-22 22:33 | 70.04238 | -21.86906 | 37118 ft | 481 kts | 94° |
| 2026-04-22 22:34 | 70.03885 | -21.67374 | 37123 ft | 482 kts | 94° |
| 2026-04-22 22:34 | 70.03508 | -21.47774 | 37108 ft | 482 kts | 94° |
| 2026-04-22 22:35 | 70.03110 | -21.28138 | 37109 ft | 483 kts | 95° |
| 2026-04-22 22:35 | 70.02691 | -21.08599 | 37093 ft | 485 kts | 95° |
| 2026-04-22 22:36 | 70.02245 | -20.88764 | 37090 ft | 486 kts | 95° |
| 2026-04-22 22:36 | 70.01780 | -20.69113 | 37091 ft | 485 kts | 95° |
| 2026-04-22 22:37 | 70.01294 | -20.49484 | 37102 ft | 486 kts | 95° |
| 2026-04-22 22:37 | 70.00788 | -20.29939 | 37103 ft | 485 kts | 96° |
| 2026-04-22 22:38 | 70.00262 | -20.10454 | 37089 ft | 486 kts | 96° |
| 2026-04-22 22:38 | 69.99844 | -19.90783 | 37081 ft | 489 kts | 90° |
| 2026-04-22 22:39 | 70.00470 | -19.71113 | 37104 ft | 489 kts | 86° |
| 2026-04-22 22:39 | 70.01114 | -19.51413 | 37100 ft | 489 kts | 86° |
| 2026-04-22 22:40 | 70.01678 | -19.31568 | 37109 ft | 492 kts | 88° |
| 2026-04-22 22:40 | 70.02190 | -19.11649 | 37111 ft | 491 kts | 89° |
| 2026-04-22 22:41 | 70.02660 | -18.91689 | 37123 ft | 492 kts | 89° |
| 2026-04-22 22:41 | 70.03100 | -18.71697 | 37127 ft | 491 kts | 89° |
| 2026-04-22 22:42 | 70.03513 | -18.51610 | 37133 ft | 491 kts | 89° |
| 2026-04-22 22:42 | 70.03901 | -18.31513 | 37127 ft | 492 kts | 90° |
| 2026-04-22 22:43 | 70.04262 | -18.11619 | 37126 ft | 492 kts | 90° |
| 2026-04-22 22:43 | 70.04599 | -17.91692 | 37126 ft | 493 kts | 90° |
| 2026-04-22 22:44 | 70.04913 | -17.71796 | 37125 ft | 491 kts | 90° |
| 2026-04-22 22:44 | 70.05206 | -17.51822 | 37127 ft | 493 kts | 90° |
| 2026-04-22 22:45 | 70.05476 | -17.31934 | 37133 ft | 491 kts | 91° |
| 2026-04-22 22:45 | 70.05603 | -17.21973 | 37370 ft | 494 kts | 91° |
| 2026-04-22 22:45 | 70.05725 | -17.11875 | 37157 ft | 493 kts | 91° |
| 2026-04-22 22:46 | 70.05950 | -16.92026 | 37135 ft | 492 kts | 91° |
| 2026-04-22 22:46 | 70.06054 | -16.82120 | 36866 ft | 492 kts | 91° |
| 2026-04-22 22:46 | 70.06153 | -16.72125 | 37133 ft | 491 kts | 91° |
| 2026-04-22 22:47 | 70.06333 | -16.52205 | 37155 ft | 492 kts | 91° |
| 2026-04-22 22:47 | 70.06493 | -16.32197 | 37142 ft | 491 kts | 92° |
| 2026-04-22 22:48 | 70.06630 | -16.12183 | 37127 ft | 490 kts | 92° |
| 2026-04-22 22:48 | 70.06743 | -15.92416 | 37126 ft | 489 kts | 92° |
| 2026-04-22 22:49 | 70.06834 | -15.72409 | 37131 ft | 493 kts | 92° |
| 2026-04-22 22:49 | 70.06905 | -15.52531 | 37137 ft | 491 kts | 93° |
| 2026-04-22 22:50 | 70.06953 | -15.32556 | 37128 ft | 489 kts | 94° |
| 2026-04-22 22:50 | 70.06977 | -15.12626 | 37139 ft | 492 kts | 94° |
| 2026-04-22 22:51 | 70.06980 | -14.92656 | 37142 ft | 490 kts | 94° |
| 2026-04-22 22:51 | 70.06961 | -14.72768 | 37149 ft | 491 kts | 94° |
| 2026-04-22 22:52 | 70.06919 | -14.52866 | 37148 ft | 492 kts | 94° |
| 2026-04-22 22:52 | 70.06857 | -14.32876 | 37145 ft | 488 kts | 95° |
| 2026-04-22 22:53 | 70.06770 | -14.12847 | 37142 ft | 488 kts | 95° |
| 2026-04-22 22:53 | 70.06662 | -13.93025 | 37141 ft | 489 kts | 95° |
| 2026-04-22 22:54 | 70.06530 | -13.72963 | 37149 ft | 491 kts | 95° |
| 2026-04-22 22:54 | 70.06377 | -13.53044 | 37141 ft | 490 kts | 95° |
| 2026-04-22 22:55 | 70.06202 | -13.33017 | 37160 ft | 488 kts | 96° |
| 2026-04-22 22:55 | 70.05900 | -13.03349 | 37157 ft | 488 kts | 96° |
| 2026-04-22 22:56 | 70.05669 | -12.83485 | 37157 ft | 490 kts | 96° |
| 2026-04-22 22:56 | 70.05419 | -12.63697 | 37154 ft | 489 kts | 96° |
| 2026-04-22 22:57 | 70.05145 | -12.43837 | 37162 ft | 489 kts | 96° |
| 2026-04-22 22:57 | 70.04851 | -12.24100 | 37143 ft | 488 kts | 96° |
| 2026-04-22 22:58 | 70.04535 | -12.04341 | 37155 ft | 489 kts | 97° |
| 2026-04-22 22:58 | 70.04192 | -11.84398 | 37177 ft | 491 kts | 97° |
| 2026-04-22 22:59 | 70.03834 | -11.64690 | 37153 ft | 489 kts | 97° |
| 2026-04-22 22:59 | 70.03449 | -11.44835 | 37180 ft | 490 kts | 97° |
| 2026-04-22 23:00 | 70.03042 | -11.24954 | 37177 ft | 491 kts | 97° |
| 2026-04-22 23:00 | 70.02612 | -11.05036 | 37181 ft | 487 kts | 97° |
| 2026-04-22 23:01 | 70.02164 | -10.85335 | 37179 ft | 491 kts | 97° |
| 2026-04-22 23:01 | 70.01692 | -10.65550 | 37176 ft | 490 kts | 97° |
| 2026-04-22 23:02 | 70.01446 | -10.55580 | 37494 ft | 491 kts | 97° |
| 2026-04-22 23:02 | 70.01198 | -10.45768 | 37301 ft | 491 kts | 97° |
| 2026-04-22 23:02 | 70.00943 | -10.35849 | 37183 ft | 487 kts | 97° |
| 2026-04-22 23:02 | 70.00682 | -10.25951 | 37183 ft | 488 kts | 98° |
| 2026-04-22 23:03 | 70.00122 | -10.06163 | 37185 ft | 488 kts | 101° |
| 2026-04-22 23:03 | 69.98968 | -9.86820 | 37183 ft | 487 kts | 104° |
| 2026-04-22 23:04 | 69.97684 | -9.67553 | 37184 ft | 486 kts | 105° |
| 2026-04-22 23:04 | 69.96363 | -9.48405 | 37181 ft | 485 kts | 105° |
| 2026-04-22 23:05 | 69.94997 | -9.29112 | 37184 ft | 486 kts | 106° |
| 2026-04-22 23:05 | 69.93616 | -9.10018 | 37196 ft | 485 kts | 106° |
| 2026-04-22 23:06 | 69.92204 | -8.90853 | 37204 ft | 485 kts | 106° |
| 2026-04-22 23:06 | 69.90781 | -8.71874 | 37206 ft | 485 kts | 106° |
| 2026-04-22 23:07 | 69.89311 | -8.52576 | 37206 ft | 486 kts | 106° |
| 2026-04-22 23:07 | 69.87837 | -8.33524 | 37206 ft | 486 kts | 107° |
| 2026-04-22 23:08 | 69.86343 | -8.14517 | 37206 ft | 486 kts | 107° |
| 2026-04-22 23:08 | 69.84818 | -7.95404 | 37206 ft | 487 kts | 107° |
| 2026-04-22 23:09 | 69.83275 | -7.76338 | 37214 ft | 485 kts | 107° |
| 2026-04-22 23:09 | 69.81699 | -7.57170 | 37211 ft | 486 kts | 107° |
| 2026-04-22 23:10 | 69.80122 | -7.38251 | 37211 ft | 486 kts | 107° |
| 2026-04-22 23:10 | 69.78514 | -7.19243 | 37212 ft | 485 kts | 108° |
| 2026-04-22 23:11 | 69.76905 | -7.00493 | 37215 ft | 485 kts | 107° |
| 2026-04-22 23:11 | 69.75269 | -6.81677 | 37217 ft | 485 kts | 107° |
| 2026-04-22 23:12 | 69.73607 | -6.62827 | 37222 ft | 485 kts | 107° |
| 2026-04-22 23:12 | 69.71935 | -6.44133 | 37229 ft | 485 kts | 107° |
| 2026-04-22 23:13 | 69.70235 | -6.25365 | 37229 ft | 485 kts | 108° |
| 2026-04-22 23:13 | 69.68505 | -6.06521 | 37229 ft | 486 kts | 108° |
| 2026-04-22 23:14 | 69.66768 | -5.87849 | 37234 ft | 486 kts | 108° |
| 2026-04-22 23:14 | 69.64994 | -5.69027 | 37233 ft | 487 kts | 108° |
| 2026-04-22 23:15 | 69.63218 | -5.50423 | 37233 ft | 486 kts | 108° |
| 2026-04-22 23:15 | 69.61403 | -5.31657 | 37234 ft | 486 kts | 109° |
| 2026-04-22 23:16 | 69.59583 | -5.13073 | 37239 ft | 485 kts | 109° |
| 2026-04-22 23:16 | 69.57746 | -4.94547 | 37234 ft | 486 kts | 108° |
| 2026-04-22 23:17 | 69.55886 | -4.76018 | 37236 ft | 486 kts | 108° |
| 2026-04-22 23:17 | 69.53996 | -4.57416 | 37238 ft | 487 kts | 109° |
| 2026-04-22 23:18 | 69.52076 | -4.38760 | 37242 ft | 488 kts | 108° |
| 2026-04-22 23:18 | 69.50159 | -4.20346 | 37241 ft | 487 kts | 109° |
| 2026-04-22 23:19 | 69.48202 | -4.01782 | 37238 ft | 488 kts | 109° |
| 2026-04-22 23:19 | 69.46241 | -3.83381 | 37240 ft | 488 kts | 109° |
| 2026-04-22 23:20 | 69.44264 | -3.65057 | 37238 ft | 488 kts | 109° |
| 2026-04-22 23:20 | 69.42255 | -3.46644 | 37237 ft | 489 kts | 109° |
| 2026-04-22 23:21 | 69.40221 | -3.28215 | 37234 ft | 489 kts | 110° |
| 2026-04-22 23:21 | 69.38182 | -3.09953 | 37231 ft | 489 kts | 110° |
| 2026-04-22 23:22 | 69.36110 | -2.91604 | 37233 ft | 489 kts | 110° |
| 2026-04-22 23:22 | 69.34027 | -2.73366 | 37232 ft | 489 kts | 110° |
| 2026-04-22 23:23 | 69.31935 | -2.55244 | 37234 ft | 488 kts | 109° |
| 2026-04-22 23:23 | 69.29811 | -2.37048 | 37236 ft | 489 kts | 109° |
| 2026-04-22 23:24 | 69.27660 | -2.18820 | 37230 ft | 489 kts | 110° |
| 2026-04-22 23:24 | 69.25505 | -2.00758 | 37238 ft | 489 kts | 110° |
| 2026-04-22 23:25 | 69.23302 | -1.82495 | 37235 ft | 490 kts | 110° |
| 2026-04-22 23:25 | 69.21109 | -1.64498 | 37237 ft | 491 kts | 110° |
| 2026-04-22 23:26 | 69.18871 | -1.46332 | 37236 ft | 489 kts | 110° |
| 2026-04-22 23:26 | 69.16620 | -1.28249 | 37233 ft | 490 kts | 111° |
| 2026-04-22 23:27 | 69.14343 | -1.10149 | 37234 ft | 490 kts | 111° |
| 2026-04-22 23:27 | 69.12080 | -0.92345 | 37237 ft | 491 kts | 111° |
| 2026-04-22 23:28 | 69.09759 | -0.74276 | 37359 ft | 497 kts | 111° |
| 2026-04-22 23:28 | 69.08575 | -0.65122 | 37948 ft | 494 kts | 110° |
| 2026-04-22 23:28 | 69.07420 | -0.56233 | 38709 ft | 486 kts | 110° |
| 2026-04-22 23:29 | 69.06267 | -0.47414 | 39210 ft | 483 kts | 110° |
| 2026-04-22 23:29 | 69.05122 | -0.38710 | 39231 ft | 487 kts | 110° |
| 2026-04-22 23:29 | 69.02773 | -0.20957 | 39227 ft | 488 kts | 111° |
| 2026-04-22 23:30 | 69.00414 | -0.03311 | 39225 ft | 486 kts | 111° |
| 2026-04-22 23:30 | 68.98498 | 0.14820 | 39204 ft | 488 kts | 100° |
| 2026-04-22 23:31 | 68.97360 | 0.33490 | 39224 ft | 487 kts | 99° |
| 2026-04-22 23:31 | 68.96139 | 0.52040 | 39222 ft | 489 kts | 100° |
| 2026-04-22 23:32 | 68.94846 | 0.70552 | 39221 ft | 489 kts | 101° |
| 2026-04-22 23:32 | 68.93507 | 0.89005 | 39223 ft | 489 kts | 101° |
| 2026-04-22 23:33 | 68.92133 | 1.07417 | 39221 ft | 488 kts | 101° |
| 2026-04-22 23:33 | 68.90739 | 1.25696 | 39223 ft | 489 kts | 101° |
| 2026-04-22 23:34 | 68.89314 | 1.44048 | 39220 ft | 490 kts | 101° |
| 2026-04-22 23:34 | 68.87863 | 1.62428 | 39223 ft | 489 kts | 101° |
| 2026-04-22 23:35 | 68.86391 | 1.80783 | 39220 ft | 489 kts | 102° |
| 2026-04-22 23:35 | 68.84903 | 1.99054 | 39221 ft | 489 kts | 102° |
| 2026-04-22 23:36 | 68.83395 | 2.17313 | 39223 ft | 490 kts | 102° |
| 2026-04-22 23:36 | 68.81863 | 2.35574 | 39222 ft | 490 kts | 102° |
| 2026-04-22 23:37 | 68.80308 | 2.53871 | 39222 ft | 490 kts | 102° |
| 2026-04-22 23:37 | 68.78722 | 2.72252 | 39221 ft | 492 kts | 103° |
| 2026-04-22 23:38 | 68.77125 | 2.90524 | 39220 ft | 493 kts | 103° |
| 2026-04-22 23:38 | 68.75494 | 3.08921 | 39222 ft | 493 kts | 103° |
| 2026-04-22 23:39 | 68.73847 | 3.27239 | 39221 ft | 494 kts | 102° |
| 2026-04-22 23:39 | 68.72173 | 3.45621 | 39219 ft | 493 kts | 102° |
| 2026-04-22 23:40 | 68.70489 | 3.63871 | 39219 ft | 494 kts | 102° |
| 2026-04-22 23:40 | 68.68779 | 3.82151 | 39216 ft | 494 kts | 103° |
| 2026-04-22 23:41 | 68.67064 | 4.00260 | 39217 ft | 494 kts | 103° |
| 2026-04-22 23:41 | 68.65321 | 4.18427 | 39218 ft | 495 kts | 103° |
| 2026-04-22 23:42 | 68.63555 | 4.36588 | 39219 ft | 494 kts | 103° |
| 2026-04-22 23:42 | 68.61777 | 4.54661 | 39220 ft | 493 kts | 103° |
| 2026-04-22 23:43 | 68.59978 | 4.72715 | 39217 ft | 494 kts | 104° |
| 2026-04-22 23:43 | 68.58152 | 4.90815 | 39218 ft | 497 kts | 104° |
| 2026-04-22 23:44 | 68.56307 | 5.08876 | 39211 ft | 496 kts | 104° |
| 2026-04-22 23:44 | 68.54437 | 5.26969 | 39207 ft | 495 kts | 104° |
| 2026-04-22 23:45 | 68.52551 | 5.45002 | 39206 ft | 496 kts | 104° |
| 2026-04-22 23:45 | 68.50639 | 5.63062 | 39201 ft | 496 kts | 104° |
| 2026-04-22 23:46 | 68.48713 | 5.81052 | 39198 ft | 497 kts | 104° |
| 2026-04-22 23:46 | 68.46741 | 5.99245 | 39197 ft | 497 kts | 105° |
| 2026-04-22 23:47 | 68.44765 | 6.17268 | 39197 ft | 498 kts | 104° |
| 2026-04-22 23:47 | 68.42753 | 6.35406 | 39200 ft | 499 kts | 104° |
| 2026-04-22 23:48 | 68.40722 | 6.53504 | 39205 ft | 498 kts | 104° |
| 2026-04-22 23:48 | 68.38689 | 6.71419 | 39207 ft | 499 kts | 105° |
| 2026-04-22 23:49 | 68.36620 | 6.89457 | 39212 ft | 497 kts | 105° |
| 2026-04-22 23:49 | 68.34557 | 7.07226 | 39215 ft | 499 kts | 105° |
| 2026-04-22 23:50 | 68.32467 | 7.25044 | 39220 ft | 499 kts | 105° |
| 2026-04-22 23:50 | 68.30351 | 7.42892 | 39219 ft | 498 kts | 105° |
| 2026-04-22 23:51 | 68.28216 | 7.60696 | 39222 ft | 499 kts | 105° |
| 2026-04-22 23:51 | 68.26047 | 7.78598 | 39219 ft | 499 kts | 105° |
| 2026-04-22 23:52 | 68.23867 | 7.96392 | 39220 ft | 501 kts | 105° |
| 2026-04-22 23:52 | 68.21675 | 8.14097 | 39221 ft | 500 kts | 105° |
| 2026-04-22 23:53 | 68.19459 | 8.31817 | 39220 ft | 500 kts | 105° |
| 2026-04-22 23:53 | 68.17233 | 8.49423 | 39215 ft | 501 kts | 105° |
| 2026-04-22 23:54 | 68.14968 | 8.67156 | 39210 ft | 501 kts | 106° |
| 2026-04-22 23:54 | 68.12683 | 8.84863 | 39205 ft | 500 kts | 106° |
| 2026-04-22 23:55 | 68.10399 | 9.02386 | 39202 ft | 502 kts | 106° |
| 2026-04-22 23:55 | 68.08087 | 9.19946 | 39203 ft | 502 kts | 106° |
| 2026-04-22 23:56 | 68.05739 | 9.37597 | 39205 ft | 502 kts | 106° |
| 2026-04-22 23:56 | 68.03384 | 9.55121 | 39201 ft | 503 kts | 105° |
| 2026-04-22 23:57 | 68.01006 | 9.72658 | 39201 ft | 503 kts | 107° |
| 2026-04-22 23:57 | 67.98626 | 9.90024 | 39202 ft | 502 kts | 107° |
| 2026-04-22 23:58 | 67.96210 | 10.07486 | 39202 ft | 504 kts | 107° |
| 2026-04-22 23:58 | 67.93786 | 10.24835 | 39210 ft | 505 kts | 107° |
| 2026-04-22 23:59 | 67.91329 | 10.42248 | 39210 ft | 504 kts | 107° |
| 2026-04-22 23:59 | 67.88808 | 10.59524 | 39197 ft | 505 kts | 108° |
| 2026-04-23 00:00 | 67.84785 | 10.85278 | 38522 ft | 501 kts | 109° |
| 2026-04-23 00:00 | 67.83437 | 10.93822 | 37436 ft | 506 kts | 109° |
| 2026-04-23 00:01 | 67.82091 | 11.02300 | 36541 ft | 507 kts | 108° |
| 2026-04-23 00:01 | 67.80718 | 11.10901 | 35717 ft | 506 kts | 108° |
| 2026-04-23 00:01 | 67.79352 | 11.19415 | 34877 ft | 505 kts | 108° |
| 2026-04-23 00:01 | 67.77995 | 11.27830 | 34000 ft | 506 kts | 107° |
| 2026-04-23 00:02 | 67.76614 | 11.36363 | 33167 ft | 507 kts | 108° |
| 2026-04-23 00:02 | 67.75228 | 11.44887 | 32237 ft | 509 kts | 108° |
| 2026-04-23 00:02 | 67.73802 | 11.53619 | 31253 ft | 517 kts | 108° |
| 2026-04-23 00:02 | 67.72369 | 11.62359 | 30487 ft | 523 kts | 108° |
| 2026-04-23 00:03 | 67.70923 | 11.71118 | 29944 ft | 520 kts | 109° |
| 2026-04-23 00:03 | 67.69468 | 11.79887 | 29337 ft | 518 kts | 109° |
| 2026-04-23 00:03 | 67.68025 | 11.88546 | 28706 ft | 516 kts | 109° |
| 2026-04-23 00:03 | 67.66585 | 11.97155 | 28063 ft | 511 kts | 108° |
| 2026-04-23 00:04 | 67.65162 | 12.05630 | 27411 ft | 506 kts | 108° |
| 2026-04-23 00:04 | 67.63759 | 12.13952 | 26775 ft | 500 kts | 108° |
| 2026-04-23 00:04 | 67.62357 | 12.22231 | 26111 ft | 496 kts | 108° |
| 2026-04-23 00:04 | 67.60969 | 12.30403 | 25457 ft | 491 kts | 108° |
| 2026-04-23 00:05 | 67.59584 | 12.38523 | 24796 ft | 486 kts | 108° |
| 2026-04-23 00:05 | 67.58208 | 12.46559 | 24156 ft | 482 kts | 108° |
| 2026-04-23 00:05 | 67.56858 | 12.54406 | 23513 ft | 478 kts | 108° |
| 2026-04-23 00:05 | 67.55492 | 12.62317 | 22860 ft | 474 kts | 108° |
| 2026-04-23 00:06 | 67.54140 | 12.70119 | 22188 ft | 471 kts | 109° |
| 2026-04-23 00:06 | 67.52807 | 12.77787 | 21531 ft | 468 kts | 109° |
| 2026-04-23 00:06 | 67.51452 | 12.85544 | 20855 ft | 465 kts | 109° |
| 2026-04-23 00:06 | 67.50120 | 12.93137 | 20179 ft | 462 kts | 109° |
| 2026-04-23 00:07 | 67.48801 | 13.00632 | 19510 ft | 458 kts | 109° |
| 2026-04-23 00:07 | 67.47482 | 13.08096 | 18828 ft | 455 kts | 109° |
| 2026-04-23 00:07 | 67.46170 | 13.15492 | 18151 ft | 451 kts | 109° |
| 2026-04-23 00:07 | 67.44862 | 13.22842 | 17479 ft | 447 kts | 109° |
| 2026-04-23 00:08 | 67.43552 | 13.30176 | 16802 ft | 443 kts | 109° |
| 2026-04-23 00:08 | 67.42266 | 13.37346 | 16135 ft | 439 kts | 110° |
| 2026-04-23 00:08 | 67.40974 | 13.44526 | 15458 ft | 435 kts | 110° |
| 2026-04-23 00:08 | 67.39716 | 13.51498 | 14784 ft | 430 kts | 110° |
| 2026-04-23 00:09 | 67.38443 | 13.58519 | 14109 ft | 426 kts | 109° |
| 2026-04-23 00:09 | 67.37198 | 13.65370 | 13465 ft | 421 kts | 110° |
| 2026-04-23 00:09 | 67.35947 | 13.72228 | 12807 ft | 417 kts | 110° |
| 2026-04-23 00:09 | 67.34719 | 13.78937 | 12153 ft | 412 kts | 110° |
| 2026-04-23 00:10 | 67.33503 | 13.85569 | 11462 ft | 404 kts | 110° |
| 2026-04-23 00:10 | 67.32558 | 13.92206 | 10966 ft | 381 kts | 99° |
| 2026-04-23 00:10 | 67.32123 | 13.98696 | 10523 ft | 358 kts | 87° |
| 2026-04-23 00:10 | 67.32210 | 14.04926 | 10112 ft | 336 kts | 75° |
| 2026-04-23 00:11 | 67.32570 | 14.10732 | 9868 ft | 317 kts | 72° |
| 2026-04-23 00:11 | 67.32934 | 14.16133 | 9708 ft | 300 kts | 72° |
| 2026-04-23 00:11 | 67.33280 | 14.21314 | 9570 ft | 285 kts | 72° |
| 2026-04-23 00:11 | 67.33612 | 14.26332 | 9188 ft | 280 kts | 72° |
| 2026-04-23 00:12 | 67.33935 | 14.31268 | 8711 ft | 279 kts | 72° |
| 2026-04-23 00:12 | 67.34254 | 14.36202 | 8244 ft | 277 kts | 73° |
| 2026-04-23 00:12 | 67.34568 | 14.41129 | 7787 ft | 276 kts | 73° |
| 2026-04-23 00:12 | 67.34876 | 14.46000 | 7506 ft | 270 kts | 73° |
| 2026-04-23 00:13 | 67.35165 | 14.50646 | 7502 ft | 255 kts | 73° |
| 2026-04-23 00:13 | 67.35442 | 14.55086 | 7485 ft | 241 kts | 73° |
| 2026-04-23 00:13 | 67.35701 | 14.59233 | 7316 ft | 234 kts | 73° |
| 2026-04-23 00:13 | 67.35966 | 14.63428 | 6920 ft | 238 kts | 73° |
| 2026-04-23 00:14 | 67.36232 | 14.67697 | 6596 ft | 238 kts | 74° |
| 2026-04-23 00:14 | 67.36490 | 14.71891 | 6326 ft | 236 kts | 75° |
| 2026-04-23 00:14 | 67.36748 | 14.76089 | 6018 ft | 236 kts | 75° |
| 2026-04-23 00:14 | 67.37003 | 14.80270 | 5731 ft | 235 kts | 76° |
| 2026-04-23 00:15 | 67.37253 | 14.84442 | 5552 ft | 232 kts | 78° |
| 2026-04-23 00:15 | 67.37095 | 14.88662 | 5554 ft | 248 kts | 106° |
| 2026-04-23 00:15 | 67.36114 | 14.92408 | 5537 ft | 255 kts | 139° |
| 2026-04-23 00:15 | 67.34529 | 14.94398 | 5526 ft | 261 kts | 170° |
| 2026-04-23 00:16 | 67.32676 | 14.94772 | 4973 ft | 276 kts | 185° |
| 2026-04-23 00:16 | 67.30730 | 14.94234 | 3944 ft | 291 kts | 200° |
| 2026-04-23 00:16 | 67.29054 | 14.91727 | 3467 ft | 268 kts | 230° |
| 2026-04-23 00:16 | 67.28146 | 14.87919 | 3406 ft | 240 kts | 257° |
| 2026-04-23 00:17 | 67.27905 | 14.83840 | 3278 ft | 222 kts | 270° |
| 2026-04-23 00:17 | 67.27836 | 14.80011 | 3127 ft | 203 kts | 272° |
| 2026-04-23 00:17 | 67.27799 | 14.76503 | 3002 ft | 187 kts | 274° |
| 2026-04-23 00:17 | 67.27771 | 14.73340 | 2904 ft | 166 kts | 274° |
| 2026-04-23 00:18 | 67.27747 | 14.70410 | 2714 ft | 160 kts | 274° |
| 2026-04-23 00:18 | 67.27724 | 14.67614 | 2440 ft | 155 kts | 274° |
| 2026-04-23 00:18 | 67.27700 | 14.64835 | 2182 ft | 153 kts | 274° |
| 2026-04-23 00:18 | 67.27678 | 14.62123 | 1956 ft | 152 kts | 274° |
| 2026-04-23 00:19 | 67.27653 | 14.59441 | 1713 ft | 143 kts | 274° |
| 2026-04-23 00:19 | 67.27630 | 14.57005 | 1500 ft | 133 kts | 274° |
| 2026-04-23 00:19 | 67.27608 | 14.54627 | 1304 ft | 131 kts | 274° |
| 2026-04-23 00:19 | 67.27587 | 14.52296 | 1097 ft | 130 kts | 274° |
| 2026-04-23 00:20 | 67.27564 | 14.49955 | 895 ft | 129 kts | 273° |
| 2026-04-23 00:20 | 67.27563 | 14.47657 | 672 ft | 128 kts | 272° |
| 2026-04-23 00:20 | 67.27535 | 14.45364 | 477 ft | 130 kts | 271° |
| 2026-04-23 00:20 | 67.27442 | 14.42959 | 374 ft | 140 kts | 263° |
| 2026-04-23 00:21 | 67.27164 | 14.39522 | 128 ft | 151 kts | 260° |
| 2026-04-23 00:21 | 67.27022 | 14.37765 | 71 ft | 143 kts | 259° |
| 2026-04-23 00:21 | 67.26846 | 14.35605 | 53 ft | 104 kts | 259° |
| 2026-04-23 00:21 | 67.26714 | 14.34061 | 41 ft | 69 kts | 253° |
| 2026-04-23 00:22 | 67.26666 | 14.33507 | 35 ft | 14 kts | 286° |
| 2026-04-23 00:22 | 67.26745 | 14.33396 | 34 ft | 11 kts | 351° |
| 2026-04-23 00:22 | 67.26798 | 14.33458 | 34 ft | 9 kts | 57° |
| 2026-04-23 00:22 | 67.26824 | 14.33658 | 36 ft | 13 kts | 77° |
| 2026-04-23 00:23 | 67.26844 | 14.33923 | 38 ft | 16 kts | 78° |
| 2026-04-23 00:23 | 67.26871 | 14.34248 | 41 ft | 20 kts | 76° |
| 2026-04-23 00:23 | 67.26905 | 14.34621 | 45 ft | 23 kts | 80° |
| 2026-04-23 00:23 | 67.26939 | 14.35045 | 50 ft | 25 kts | 77° |
| 2026-04-23 00:24 | 67.26978 | 14.35525 | 52 ft | 28 kts | 78° |
| 2026-04-23 00:24 | 67.27016 | 14.35874 | 53 ft | 14 kts | 68° |
| 2026-04-23 00:24 | 67.27024 | 14.36124 | 53 ft | 15 kts | 88° |
| 2026-04-23 00:24 | 67.27039 | 14.36389 | 54 ft | 13 kts | 79° |
| 2026-04-23 00:25 | 67.27077 | 14.36560 | 54 ft | 11 kts | 37° |
| 2026-04-23 00:25 | 67.27119 | 14.36634 | 55 ft | 4 kts | 33° |
| 2026-04-23 00:25 | 67.27138 | 14.36668 | 55 ft | 1 kts | 34° |
| 2026-04-23 00:25 | 67.27142 | 14.36676 | 55 ft | 0 kts | 34° |